Time;durP1;ratioP1;P1;durP2;ratioP2;P2;SDS_P1;SDS_P2;PMS_P1;PMS_P2;Temp;Humidity;BMP_temperature;BMP_pressure;BME280_temperature;BME280_humidity;BME280_pressure;Samples;Min_cycle;Max_cycle;Signal;HPM_P1;HPM_P2
2023/06/26 00:00:57;;;;;;;8.68;7.75;;;;;;;;;;5033297;28;20245;-62
2023/06/26 00:03:24;;;;;;;8.18;7.38;;;;;;;;;;5046438;28;20696;-63
2023/06/26 00:05:52;;;;;;;9.27;8.27;;;;;;;;;;5042843;28;20222;-63
2023/06/26 00:08:19;;;;;;;8.23;7.35;;;;;;;;;;5030652;28;20207;-63
2023/06/26 00:10:46;;;;;;;10.10;8.55;;;;;;;;;;5039195;28;20252;-63
2023/06/26 00:13:13;;;;;;;7.93;7.13;;;;;;;;;;5031858;28;20222;-63
2023/06/26 00:15:41;;;;;;;8.73;7.80;;;;;;;;;;5034569;28;20221;-65
2023/06/26 00:18:08;;;;;;;11.07;8.15;;;;;;;;;;5037376;28;20206;-63
2023/06/26 00:20:35;;;;;;;9.43;8.52;;;;;;;;;;5038125;28;20202;-63
2023/06/26 00:23:07;;;;;;;8.32;7.43;;;;;;;;;;5016763;28;20241;-64
2023/06/26 00:25:34;;;;;;;17.85;11.93;;;;;;;;;;5029725;28;20242;-64
2023/06/26 00:28:02;;;;;;;12.13;9.65;;;;;;;;;;5023652;28;20272;-64
2023/06/26 00:30:29;;;;;;;8.30;7.20;;;;;;;;;;5027995;28;21987;-63
2023/06/26 00:32:56;;;;;;;7.57;6.88;;;;;;;;;;5031919;28;20226;-62
2023/06/26 00:35:24;;;;;;;11.63;9.30;;;;;;;;;;5043359;28;20668;-61
2023/06/26 00:37:51;;;;;;;16.45;11.52;;;;;;;;;;5044714;28;20268;-65
2023/06/26 00:40:19;;;;;;;22.20;12.60;;;;;;;;;;5040739;28;20593;-62
2023/06/26 00:42:46;;;;;;;23.95;15.07;;;;;;;;;;5027163;28;20272;-64
2023/06/26 00:45:13;;;;;;;11.88;9.18;;;;;;;;;;5033378;28;20210;-64
2023/06/26 00:47:41;;;;;;;12.13;9.75;;;;;;;;;;5034646;28;20206;-64
2023/06/26 00:50:09;;;;;;;10.77;9.05;;;;;;;;;;5012528;28;20209;-63
2023/06/26 00:52:36;;;;;;;10.32;8.70;;;;;;;;;;5033856;28;20595;-63
2023/06/26 00:55:04;;;;;;;11.07;8.45;;;;;;;;;;5039479;28;20263;-65
2023/06/26 00:57:31;;;;;;;10.10;8.07;;;;;;;;;;5039276;28;20206;-62
2023/06/26 00:59:59;;;;;;;9.20;8.10;;;;;;;;;;5038715;28;20224;-63
2023/06/26 01:02:33;;;;;;;8.68;7.78;;;;;;;;;;5031687;28;20230;-62
2023/06/26 01:05:05;;;;;;;8.68;7.78;;;;;;;;;;5037039;28;20236;-63
2023/06/26 01:07:36;;;;;;;10.23;8.38;;;;;;;;;;5031328;28;20257;-63
2023/06/26 01:10:06;;;;;;;8.73;7.82;;;;;;;;;;5025490;28;20208;-65
2023/06/26 01:12:34;;;;;;;8.95;8.05;;;;;;;;;;5032457;28;20222;-64
2023/06/26 01:15:01;;;;;;;8.65;7.75;;;;;;;;;;5035915;28;20629;-64
2023/06/26 01:17:31;;;;;;;9.55;7.85;;;;;;;;;;5017406;28;20845;-64
2023/06/26 01:20:00;;;;;;;10.95;7.72;;;;;;;;;;5040063;28;20249;-63
2023/06/26 01:22:57;;;;;;;9.35;8.25;;;;;;;;;;5022279;28;20287;-64
2023/06/26 01:25:38;;;;;;;9.10;7.72;;;;;;;;;;5035116;28;20849;-64
2023/06/26 01:28:07;;;;;;;8.38;7.55;;;;;;;;;;5036953;28;20550;-64
2023/06/26 01:30:39;;;;;;;8.23;7.43;;;;;;;;;;5044446;28;20247;-64
2023/06/26 01:33:06;;;;;;;8.07;7.28;;;;;;;;;;5012673;28;20230;-64
2023/06/26 01:35:35;;;;;;;9.05;8.10;;;;;;;;;;5032962;28;20222;-62
2023/06/26 01:38:16;;;;;;;8.52;7.63;;;;;;;;;;5031431;28;21120;-63
2023/06/26 01:40:44;;;;;;;9.43;7.78;;;;;;;;;;5029482;28;20237;-64
2023/06/26 01:43:29;;;;;;;9.35;7.85;;;;;;;;;;5040998;28;20238;-63
2023/06/26 01:46:01;;;;;;;8.23;7.35;;;;;;;;;;5035278;28;20213;-65
2023/06/26 01:48:31;;;;;;;8.02;7.30;;;;;;;;;;5032054;28;20692;-62
2023/06/26 01:50:59;;;;;;;9.32;7.68;;;;;;;;;;5024590;28;20206;-65
2023/06/26 01:53:30;;;;;;;8.93;7.13;;;;;;;;;;5026437;28;20228;-64
2023/06/26 01:56:05;;;;;;;7.60;6.90;;;;;;;;;;5016031;28;20218;-64
2023/06/26 01:58:32;;;;;;;8.50;7.70;;;;;;;;;;5032264;28;20213;-64
2023/06/26 02:01:00;;;;;;;8.65;7.63;;;;;;;;;;5022263;28;20217;-65
2023/06/26 02:03:30;;;;;;;9.80;7.82;;;;;;;;;;5030702;28;20236;-63
2023/06/26 02:05:57;;;;;;;10.20;7.68;;;;;;;;;;5005628;28;20229;-65
2023/06/26 02:08:25;;;;;;;10.38;8.38;;;;;;;;;;5027398;28;20268;-63
2023/06/26 02:10:52;;;;;;;8.13;7.32;;;;;;;;;;5037258;28;20202;-62
2023/06/26 02:13:20;;;;;;;8.55;7.53;;;;;;;;;;5037039;28;20234;-63
2023/06/26 02:15:47;;;;;;;8.38;7.15;;;;;;;;;;5039014;28;20241;-65
2023/06/26 02:18:14;;;;;;;8.10;7.18;;;;;;;;;;5028937;28;20206;-63
2023/06/26 02:20:43;;;;;;;8.55;7.75;;;;;;;;;;5022400;28;20237;-65
2023/06/26 02:23:11;;;;;;;8.25;7.50;;;;;;;;;;5027434;28;20229;-65
2023/06/26 02:25:38;;;;;;;8.63;7.72;;;;;;;;;;5020911;28;20284;-64
2023/06/26 02:28:05;;;;;;;8.63;7.70;;;;;;;;;;5022331;28;20245;-62
2023/06/26 02:30:33;;;;;;;9.43;7.40;;;;;;;;;;5041161;28;20693;-63
2023/06/26 02:33:00;;;;;;;8.60;7.80;;;;;;;;;;5020632;28;20309;-63
2023/06/26 02:35:28;;;;;;;8.60;7.68;;;;;;;;;;5045829;28;20210;-62
2023/06/26 02:37:55;;;;;;;8.68;7.78;;;;;;;;;;5016445;28;20579;-64
2023/06/26 02:40:23;;;;;;;9.32;7.80;;;;;;;;;;5027430;28;20214;-65
2023/06/26 02:42:50;;;;;;;9.68;8.00;;;;;;;;;;5016775;28;20222;-65
2023/06/26 02:45:17;;;;;;;8.80;7.90;;;;;;;;;;5044603;28;20213;-65
2023/06/26 02:47:45;;;;;;;8.90;8.00;;;;;;;;;;5018569;28;20208;-64
2023/06/26 02:50:13;;;;;;;9.50;7.50;;;;;;;;;;5024403;28;20288;-62
2023/06/26 02:52:40;;;;;;;8.50;7.60;;;;;;;;;;5042024;28;20249;-63
2023/06/26 02:55:07;;;;;;;8.02;7.22;;;;;;;;;;5020169;28;20214;-65
2023/06/26 02:57:35;;;;;;;8.43;7.45;;;;;;;;;;5044309;28;20691;-64
2023/06/26 03:00:02;;;;;;;9.00;7.60;;;;;;;;;;5023139;28;20257;-66
2023/06/26 03:02:29;;;;;;;8.32;7.13;;;;;;;;;;5025736;28;20222;-61
2023/06/26 03:04:57;;;;;;;9.65;7.60;;;;;;;;;;5043961;28;20265;-65
2023/06/26 03:07:25;;;;;;;8.40;7.60;;;;;;;;;;5026260;28;20672;-62
2023/06/26 03:09:52;;;;;;;8.48;6.80;;;;;;;;;;5019063;28;20206;-64
2023/06/26 03:12:19;;;;;;;9.68;7.53;;;;;;;;;;5040747;28;20206;-64
2023/06/26 03:14:46;;;;;;;10.35;7.93;;;;;;;;;;5047592;28;20238;-64
2023/06/26 03:17:14;;;;;;;7.60;6.80;;;;;;;;;;5029679;28;20273;-64
2023/06/26 03:19:41;;;;;;;8.52;7.47;;;;;;;;;;5039251;28;20698;-62
2023/06/26 03:22:08;;;;;;;7.45;6.65;;;;;;;;;;5038902;28;20226;-63
2023/06/26 03:24:35;;;;;;;7.95;7.13;;;;;;;;;;5030045;28;20222;-62
2023/06/26 03:27:03;;;;;;;10.55;6.60;;;;;;;;;;5031303;28;22173;-65
2023/06/26 03:29:30;;;;;;;8.50;7.50;;;;;;;;;;5036548;28;20217;-64
2023/06/26 03:31:59;;;;;;;10.50;7.38;;;;;;;;;;5035051;28;20205;-65
2023/06/26 03:34:26;;;;;;;8.68;6.57;;;;;;;;;;5023523;28;21052;-64
2023/06/26 03:36:53;;;;;;;8.23;6.88;;;;;;;;;;5028454;28;20268;-65
2023/06/26 03:39:21;;;;;;;8.60;7.50;;;;;;;;;;5032812;28;20202;-64
2023/06/26 03:41:48;;;;;;;10.32;6.70;;;;;;;;;;5040405;28;20256;-65
2023/06/26 03:44:16;;;;;;;7.43;6.72;;;;;;;;;;5021420;28;20233;-64
2023/06/26 03:46:43;;;;;;;8.93;6.78;;;;;;;;;;5045778;28;20198;-66
2023/06/26 03:49:11;;;;;;;7.30;6.60;;;;;;;;;;5019197;28;20666;-61
2023/06/26 03:51:38;;;;;;;7.20;6.50;;;;;;;;;;5045111;28;20202;-62
2023/06/26 03:54:06;;;;;;;8.10;7.18;;;;;;;;;;5036115;28;20226;-64
2023/06/26 03:56:33;;;;;;;7.85;7.03;;;;;;;;;;5024477;28;20582;-64
2023/06/26 03:59:00;;;;;;;8.25;6.93;;;;;;;;;;5038721;28;20202;-64
2023/06/26 04:01:28;;;;;;;7.60;6.72;;;;;;;;;;5038755;28;20202;-62
2023/06/26 04:03:55;;;;;;;7.90;6.85;;;;;;;;;;5038854;28;20237;-64
2023/06/26 04:06:22;;;;;;;7.60;6.90;;;;;;;;;;5037758;28;20241;-63
2023/06/26 04:08:50;;;;;;;7.10;6.40;;;;;;;;;;5024874;28;20326;-65
2023/06/26 04:11:17;;;;;;;8.00;6.65;;;;;;;;;;5034210;28;20273;-64
2023/06/26 04:13:44;;;;;;;7.38;6.65;;;;;;;;;;5037700;28;20716;-63
2023/06/26 04:16:11;;;;;;;9.65;6.75;;;;;;;;;;5034503;28;20211;-63
2023/06/26 04:18:39;;;;;;;7.90;6.95;;;;;;;;;;5015113;28;20612;-64
2023/06/26 04:21:14;;;;;;;7.85;7.05;;;;;;;;;;5022649;28;23337;-64
2023/06/26 04:23:41;;;;;;;7.28;6.57;;;;;;;;;;5026946;28;20708;-64
2023/06/26 04:26:09;;;;;;;7.63;6.82;;;;;;;;;;5031175;28;20215;-62
2023/06/26 04:28:36;;;;;;;7.03;6.32;;;;;;;;;;5019882;28;20598;-65
2023/06/26 04:31:04;;;;;;;7.97;6.50;;;;;;;;;;5036030;28;20207;-64
2023/06/26 04:33:32;;;;;;;7.40;6.63;;;;;;;;;;5031263;28;20233;-64
2023/06/26 04:36:03;;;;;;;7.13;6.43;;;;;;;;;;5042608;28;20216;-65
2023/06/26 04:38:31;;;;;;;7.63;6.82;;;;;;;;;;5035861;28;20639;-63
2023/06/26 04:40:59;;;;;;;7.18;6.40;;;;;;;;;;5035144;28;20217;-63
2023/06/26 04:43:26;;;;;;;7.25;6.40;;;;;;;;;;5042829;28;20230;-65
2023/06/26 04:45:54;;;;;;;7.90;6.28;;;;;;;;;;5034026;28;20217;-64
2023/06/26 04:48:21;;;;;;;7.15;6.45;;;;;;;;;;5047102;28;20198;-63
2023/06/26 04:50:53;;;;;;;8.82;6.43;;;;;;;;;;5020835;28;20215;-64
2023/06/26 04:53:22;;;;;;;6.72;6.13;;;;;;;;;;5046546;28;20276;-64
2023/06/26 04:55:50;;;;;;;7.32;6.50;;;;;;;;;;5042248;28;20687;-65
2023/06/26 04:58:18;;;;;;;7.18;5.95;;;;;;;;;;5040135;28;20211;-64
2023/06/26 05:00:45;;;;;;;6.82;6.13;;;;;;;;;;5043632;28;20263;-64
2023/06/26 05:03:14;;;;;;;6.75;6.03;;;;;;;;;;5021392;28;20229;-62
2023/06/26 05:05:41;;;;;;;7.03;6.38;;;;;;;;;;5035351;28;20206;-65
2023/06/26 05:08:15;;;;;;;6.65;5.90;;;;;;;;;;5047737;28;20217;-64
2023/06/26 05:10:42;;;;;;;7.47;6.70;;;;;;;;;;5045606;28;20217;-65
2023/06/26 05:13:10;;;;;;;8.45;5.97;;;;;;;;;;5032684;28;20322;-65
2023/06/26 05:15:37;;;;;;;7.18;6.10;;;;;;;;;;5031440;28;20210;-64
2023/06/26 05:18:06;;;;;;;7.28;6.57;;;;;;;;;;5025728;28;20213;-63
2023/06/26 05:20:33;;;;;;;6.68;6.07;;;;;;;;;;5025843;28;20693;-64
2023/06/26 05:23:02;;;;;;;6.97;6.28;;;;;;;;;;5027996;28;20229;-64
2023/06/26 05:25:30;;;;;;;6.88;6.18;;;;;;;;;;5045083;28;20586;-63
2023/06/26 05:27:58;;;;;;;5.70;5.20;;;;;;;;;;5041015;28;20203;-64
2023/06/26 05:30:25;;;;;;;5.72;5.22;;;;;;;;;;5025114;28;20094;-65
2023/06/26 05:32:53;;;;;;;5.95;5.45;;;;;;;;;;5031059;28;20241;-66
2023/06/26 05:35:21;;;;;;;5.70;5.20;;;;;;;;;;5044617;28;20705;-65
2023/06/26 05:37:50;;;;;;;5.82;5.35;;;;;;;;;;5031149;28;20665;-66
2023/06/26 05:40:17;;;;;;;5.93;5.43;;;;;;;;;;5040639;28;20722;-67
2023/06/26 05:42:45;;;;;;;5.40;5.00;;;;;;;;;;5036430;28;20256;-65
2023/06/26 05:45:12;;;;;;;6.35;4.97;;;;;;;;;;5043963;28;20310;-64
2023/06/26 05:47:41;;;;;;;5.85;5.35;;;;;;;;;;5036541;28;20194;-65
2023/06/26 05:50:10;;;;;;;5.75;5.30;;;;;;;;;;5030348;28;20277;-63
2023/06/26 05:52:38;;;;;;;5.47;5.07;;;;;;;;;;5043661;28;20197;-63
2023/06/26 05:55:06;;;;;;;5.65;5.20;;;;;;;;;;5045817;28;20202;-63
2023/06/26 05:57:35;;;;;;;5.28;4.88;;;;;;;;;;5039153;28;20275;-63
2023/06/26 06:00:05;;;;;;;5.15;4.65;;;;;;;;;;5039074;28;20210;-63
2023/06/26 06:02:33;;;;;;;5.20;4.68;;;;;;;;;;5043798;28;20440;-65
2023/06/26 06:05:00;;;;;;;5.10;4.70;;;;;;;;;;5034348;28;20202;-63
2023/06/26 06:07:27;;;;;;;5.13;4.72;;;;;;;;;;5038620;28;20213;-65
2023/06/26 06:09:54;;;;;;;4.88;4.30;;;;;;;;;;5026659;28;20225;-64
2023/06/26 06:12:22;;;;;;;4.78;4.38;;;;;;;;;;5037959;28;20239;-64
2023/06/26 06:14:49;;;;;;;5.00;4.60;;;;;;;;;;5037685;28;20229;-65
2023/06/26 06:17:16;;;;;;;4.80;4.40;;;;;;;;;;5042652;28;20231;-66
2023/06/26 06:19:43;;;;;;;4.82;4.43;;;;;;;;;;5040611;28;20741;-64
2023/06/26 06:22:11;;;;;;;5.00;4.45;;;;;;;;;;5033246;28;20340;-64
2023/06/26 06:24:38;;;;;;;5.00;4.47;;;;;;;;;;5032238;28;20287;-65
2023/06/26 06:27:05;;;;;;;4.53;4.22;;;;;;;;;;5040385;28;20207;-63
2023/06/26 06:29:33;;;;;;;5.15;4.25;;;;;;;;;;5033934;28;20313;-65
2023/06/26 06:32:00;;;;;;;5.05;4.60;;;;;;;;;;5033270;28;20660;-65
2023/06/26 06:34:27;;;;;;;5.05;4.38;;;;;;;;;;5045703;28;20234;-63
2023/06/26 06:36:55;;;;;;;4.80;4.38;;;;;;;;;;5034162;28;20265;-65
2023/06/26 06:39:22;;;;;;;4.53;4.13;;;;;;;;;;5036381;28;20218;-64
2023/06/26 06:41:49;;;;;;;5.20;4.70;;;;;;;;;;5038928;28;20207;-65
2023/06/26 06:44:16;;;;;;;4.63;4.20;;;;;;;;;;5042950;28;20405;-64
2023/06/26 06:46:43;;;;;;;4.43;4.10;;;;;;;;;;5036079;28;20668;-66
2023/06/26 06:49:11;;;;;;;5.00;4.50;;;;;;;;;;5041382;28;20556;-67
2023/06/26 06:51:38;;;;;;;4.72;4.32;;;;;;;;;;5030071;28;20637;-65
2023/06/26 06:54:05;;;;;;;5.15;4.75;;;;;;;;;;5044538;28;20598;-65
2023/06/26 06:56:33;;;;;;;5.25;4.85;;;;;;;;;;5044679;28;20264;-64
2023/06/26 06:59:00;;;;;;;5.50;5.00;;;;;;;;;;5022959;28;20279;-65
2023/06/26 07:01:27;;;;;;;5.00;4.50;;;;;;;;;;5041774;28;20202;-64
2023/06/26 07:03:55;;;;;;;5.70;4.43;;;;;;;;;;5035732;28;20316;-65
2023/06/26 07:06:22;;;;;;;4.80;4.40;;;;;;;;;;5043898;28;20594;-63
2023/06/26 07:08:49;;;;;;;6.18;4.88;;;;;;;;;;5037656;28;20202;-63
2023/06/26 07:11:17;;;;;;;5.47;4.53;;;;;;;;;;5042188;28;20212;-65
2023/06/26 07:13:44;;;;;;;5.72;5.22;;;;;;;;;;5019778;28;20321;-66
2023/06/26 07:16:14;;;;;;;7.82;4.68;;;;;;;;;;5043759;28;20206;-65
2023/06/26 07:18:43;;;;;;;5.38;4.88;;;;;;;;;;5045419;28;20198;-65
2023/06/26 07:21:11;;;;;;;5.45;4.90;;;;;;;;;;5046838;28;20213;-65
2023/06/26 07:23:38;;;;;;;5.72;5.22;;;;;;;;;;5035220;28;20334;-65
2023/06/26 07:26:05;;;;;;;5.43;4.53;;;;;;;;;;5036714;28;20213;-67
2023/06/26 07:28:33;;;;;;;4.90;4.50;;;;;;;;;;5046412;28;20259;-65
2023/06/26 07:31:00;;;;;;;5.63;5.13;;;;;;;;;;5037829;28;21663;-66
2023/06/26 07:33:27;;;;;;;5.28;4.75;;;;;;;;;;5045593;28;20248;-67
2023/06/26 07:35:55;;;;;;;4.82;4.43;;;;;;;;;;5015063;28;20202;-65
2023/06/26 07:38:22;;;;;;;4.78;4.38;;;;;;;;;;5026214;28;20672;-66
2023/06/26 07:40:49;;;;;;;5.00;4.60;;;;;;;;;;5039055;28;20210;-67
2023/06/26 07:43:17;;;;;;;4.70;4.30;;;;;;;;;;5048484;28;20724;-64
2023/06/26 07:45:44;;;;;;;6.28;4.85;;;;;;;;;;5041454;28;20245;-67
2023/06/26 07:48:11;;;;;;;6.03;4.72;;;;;;;;;;5039914;28;20234;-68
2023/06/26 07:50:39;;;;;;;5.30;4.80;;;;;;;;;;5042557;28;20256;-68
2023/06/26 07:53:06;;;;;;;5.20;4.78;;;;;;;;;;5032526;28;20680;-66
2023/06/26 07:55:34;;;;;;;5.18;4.68;;;;;;;;;;5038814;28;20203;-67
2023/06/26 07:58:01;;;;;;;5.22;4.55;;;;;;;;;;5039292;28;20222;-66
2023/06/26 08:00:28;;;;;;;5.15;4.75;;;;;;;;;;5042759;28;20256;-68
2023/06/26 08:02:56;;;;;;;5.57;5.07;;;;;;;;;;5037254;28;20221;-65
2023/06/26 08:05:23;;;;;;;5.22;4.72;;;;;;;;;;5037787;28;20227;-63
2023/06/26 08:07:51;;;;;;;5.25;4.80;;;;;;;;;;5038806;28;20221;-67
2023/06/26 08:10:18;;;;;;;5.25;4.75;;;;;;;;;;5042440;28;20264;-62
2023/06/26 08:12:46;;;;;;;5.13;4.68;;;;;;;;;;5041404;28;20228;-66
2023/06/26 08:15:14;;;;;;;5.25;4.75;;;;;;;;;;5040014;28;20217;-63
2023/06/26 08:17:41;;;;;;;5.10;4.47;;;;;;;;;;5044239;28;20626;-66
2023/06/26 08:20:09;;;;;;;9.18;4.90;;;;;;;;;;5034710;28;20208;-62
2023/06/26 08:22:36;;;;;;;4.95;4.55;;;;;;;;;;5040002;28;20208;-64
2023/06/26 08:25:05;;;;;;;4.78;4.38;;;;;;;;;;5038986;28;20241;-67
2023/06/26 08:27:32;;;;;;;5.68;4.63;;;;;;;;;;5038221;28;20735;-66
2023/06/26 08:30:00;;;;;;;5.00;4.60;;;;;;;;;;5040455;28;20718;-68
2023/06/26 08:32:27;;;;;;;5.47;4.97;;;;;;;;;;5036043;28;20234;-67
2023/06/26 08:34:54;;;;;;;5.32;4.82;;;;;;;;;;5039110;28;20206;-67
2023/06/26 08:37:22;;;;;;;6.70;5.05;;;;;;;;;;5034895;28;20369;-66
2023/06/26 08:39:49;;;;;;;5.18;4.63;;;;;;;;;;5036865;28;20214;-64
2023/06/26 08:42:16;;;;;;;6.25;4.90;;;;;;;;;;5037239;28;20213;-66
2023/06/26 08:44:44;;;;;;;7.32;4.82;;;;;;;;;;5035667;28;20230;-68
2023/06/26 08:47:27;;;;;;;5.22;4.72;;;;;;;;;;5036657;28;20648;-67
2023/06/26 08:50:07;;;;;;;4.95;4.45;;;;;;;;;;5029155;28;20660;-67
2023/06/26 08:52:37;;;;;;;5.18;4.70;;;;;;;;;;5037832;28;20685;-68
2023/06/26 08:55:07;;;;;;;4.93;4.53;;;;;;;;;;5040733;28;21316;-66
2023/06/26 08:57:34;;;;;;;6.93;4.35;;;;;;;;;;5043611;28;20210;-66
2023/06/26 09:00:02;;;;;;;5.68;4.50;;;;;;;;;;5029831;28;20210;-67
2023/06/26 09:02:29;;;;;;;7.22;5.32;;;;;;;;;;5036059;28;20206;-67
2023/06/26 09:04:57;;;;;;;5.38;4.68;;;;;;;;;;5041893;28;20309;-64
2023/06/26 09:07:24;;;;;;;5.68;5.18;;;;;;;;;;5043444;28;20202;-67
2023/06/26 09:09:52;;;;;;;5.40;4.90;;;;;;;;;;5041582;28;20221;-64
2023/06/26 09:12:20;;;;;;;4.80;4.40;;;;;;;;;;5040983;28;20281;-66
2023/06/26 09:14:48;;;;;;;5.15;4.65;;;;;;;;;;5037042;28;20225;-65
2023/06/26 09:17:15;;;;;;;5.60;5.10;;;;;;;;;;5036225;28;21068;-67
2023/06/26 09:19:46;;;;;;;5.47;5.00;;;;;;;;;;5037502;28;20214;-65
2023/06/26 09:22:14;;;;;;;6.20;4.72;;;;;;;;;;5044367;28;20198;-67
2023/06/26 09:24:42;;;;;;;5.63;4.78;;;;;;;;;;5050677;28;20605;-66
2023/06/26 09:27:09;;;;;;;6.85;4.70;;;;;;;;;;5036576;28;20249;-67
2023/06/26 09:29:37;;;;;;;5.32;4.93;;;;;;;;;;5037046;28;20202;-65
2023/06/26 09:32:04;;;;;;;5.72;4.80;;;;;;;;;;5039634;28;20211;-65
2023/06/26 09:34:32;;;;;;;5.68;4.80;;;;;;;;;;5031781;28;20370;-66
2023/06/26 09:37:02;;;;;;;5.90;4.88;;;;;;;;;;5039132;28;20264;-66
2023/06/26 09:39:32;;;;;;;5.45;4.95;;;;;;;;;;5034193;28;20225;-65
2023/06/26 09:42:01;;;;;;;5.35;4.95;;;;;;;;;;5036363;28;20206;-66
2023/06/26 09:44:34;;;;;;;5.63;5.00;;;;;;;;;;5038749;28;20399;-65
2023/06/26 09:47:03;;;;;;;4.72;4.43;;;;;;;;;;5036075;28;20217;-64
2023/06/26 09:49:31;;;;;;;5.43;4.90;;;;;;;;;;5040598;28;20453;-66
2023/06/26 09:52:00;;;;;;;5.30;4.90;;;;;;;;;;5034453;28;20259;-67
2023/06/26 09:54:30;;;;;;;5.88;4.75;;;;;;;;;;5036036;28;20225;-66
2023/06/26 09:57:07;;;;;;;5.68;5.18;;;;;;;;;;5043682;28;20248;-65
2023/06/26 09:59:35;;;;;;;5.40;5.00;;;;;;;;;;5038013;28;20536;-67
2023/06/26 10:02:02;;;;;;;5.65;5.13;;;;;;;;;;5037492;28;20225;-63
2023/06/26 10:04:30;;;;;;;5.20;4.68;;;;;;;;;;5020125;28;20716;-63
2023/06/26 10:06:59;;;;;;;5.47;4.97;;;;;;;;;;5038063;28;20199;-69
2023/06/26 10:09:27;;;;;;;5.50;5.00;;;;;;;;;;5012809;28;20217;-65
2023/06/26 10:11:59;;;;;;;5.93;5.43;;;;;;;;;;5040068;28;20193;-66
2023/06/26 10:14:27;;;;;;;6.10;5.50;;;;;;;;;;5030218;28;20214;-67
2023/06/26 10:16:59;;;;;;;5.35;4.85;;;;;;;;;;5029386;28;21185;-67
2023/06/26 10:19:27;;;;;;;5.88;5.38;;;;;;;;;;5039643;28;20205;-66
2023/06/26 10:21:55;;;;;;;5.82;5.32;;;;;;;;;;5038288;28;20198;-67
2023/06/26 10:24:23;;;;;;;6.22;5.32;;;;;;;;;;5040358;28;20253;-67
2023/06/26 10:26:53;;;;;;;7.07;5.20;;;;;;;;;;5039659;28;20209;-68
2023/06/26 10:29:21;;;;;;;6.55;4.80;;;;;;;;;;5045292;28;20207;-64
2023/06/26 10:31:51;;;;;;;5.82;5.00;;;;;;;;;;5032246;28;20272;-64
2023/06/26 10:34:18;;;;;;;5.40;4.70;;;;;;;;;;5035177;28;20287;-67
2023/06/26 10:36:47;;;;;;;7.40;5.53;;;;;;;;;;5049983;28;20197;-68
2023/06/26 10:39:15;;;;;;;6.10;5.18;;;;;;;;;;5043584;28;20205;-66
2023/06/26 10:41:42;;;;;;;5.85;5.25;;;;;;;;;;5050879;28;20622;-65
2023/06/26 10:44:26;;;;;;;5.90;5.40;;;;;;;;;;5045879;28;20234;-66
2023/06/26 10:46:55;;;;;;;5.72;5.18;;;;;;;;;;5040494;28;20198;-67
2023/06/26 10:49:26;;;;;;;5.30;4.90;;;;;;;;;;5049319;28;20284;-67
2023/06/26 10:51:56;;;;;;;5.68;5.00;;;;;;;;;;5043676;28;20259;-68
2023/06/26 10:54:24;;;;;;;6.78;6.13;;;;;;;;;;5044126;28;20233;-64
2023/06/26 10:56:58;;;;;;;5.70;5.10;;;;;;;;;;5042864;28;20248;-67
2023/06/26 10:59:26;;;;;;;6.10;5.60;;;;;;;;;;5020018;28;20202;-67
2023/06/26 11:01:57;;;;;;;6.00;5.47;;;;;;;;;;5050712;28;20202;-66
2023/06/26 11:04:39;;;;;;;9.48;5.53;;;;;;;;;;5040123;28;20295;-67
2023/06/26 11:07:26;;;;;;;5.43;5.03;;;;;;;;;;5046431;28;20785;-65
2023/06/26 11:09:57;;;;;;;7.00;5.60;;;;;;;;;;5048038;28;20202;-64
2023/06/26 11:12:37;;;;;;;5.75;5.25;;;;;;;;;;5041682;28;20603;-64
2023/06/26 11:15:08;;;;;;;5.88;5.28;;;;;;;;;;5045965;28;20236;-64
2023/06/26 11:17:36;;;;;;;5.57;5.07;;;;;;;;;;5048955;28;20240;-66
2023/06/26 11:20:12;;;;;;;5.55;5.15;;;;;;;;;;5030448;28;20210;-64
2023/06/26 11:22:40;;;;;;;7.20;5.85;;;;;;;;;;5044248;28;20201;-65
2023/06/26 11:25:08;;;;;;;6.10;5.60;;;;;;;;;;5026132;28;20230;-65
2023/06/26 11:27:38;;;;;;;6.22;5.68;;;;;;;;;;5048986;28;20309;-65
2023/06/26 11:30:06;;;;;;;7.25;5.70;;;;;;;;;;5032536;28;20194;-66
2023/06/26 11:32:34;;;;;;;6.07;5.47;;;;;;;;;;5042651;28;20210;-65
2023/06/26 11:35:01;;;;;;;6.25;5.75;;;;;;;;;;5036701;28;20221;-68
2023/06/26 11:37:28;;;;;;;6.28;5.45;;;;;;;;;;5045177;28;20206;-67
2023/06/26 11:39:56;;;;;;;6.00;5.47;;;;;;;;;;5043458;28;20664;-63
2023/06/26 11:42:25;;;;;;;6.18;5.53;;;;;;;;;;5039081;28;20206;-66
2023/06/26 11:44:53;;;;;;;6.47;5.88;;;;;;;;;;5044894;28;20284;-67
2023/06/26 11:47:22;;;;;;;6.47;5.90;;;;;;;;;;5038190;28;20203;-66
2023/06/26 11:49:50;;;;;;;6.75;5.90;;;;;;;;;;5045406;28;20210;-63
2023/06/26 11:52:17;;;;;;;6.40;5.63;;;;;;;;;;5045472;28;20201;-67
2023/06/26 11:54:46;;;;;;;6.43;5.75;;;;;;;;;;5025991;28;20229;-66
2023/06/26 11:57:17;;;;;;;6.72;5.90;;;;;;;;;;5042465;28;20225;-67
2023/06/26 11:59:44;;;;;;;8.00;5.93;;;;;;;;;;5046767;28;20266;-67
2023/06/26 12:02:14;;;;;;;6.55;5.95;;;;;;;;;;5025256;28;20818;-67
2023/06/26 12:04:42;;;;;;;7.15;5.72;;;;;;;;;;5037390;28;20281;-67
2023/06/26 12:07:10;;;;;;;7.30;5.68;;;;;;;;;;5040506;28;20202;-68
2023/06/26 12:09:42;;;;;;;6.63;6.03;;;;;;;;;;5034830;28;20210;-68
2023/06/26 12:12:09;;;;;;;6.90;6.20;;;;;;;;;;5036304;28;20210;-67
2023/06/26 12:14:37;;;;;;;6.90;6.30;;;;;;;;;;5028592;28;20222;-65
2023/06/26 12:17:05;;;;;;;8.40;6.60;;;;;;;;;;5031903;28;20244;-67
2023/06/26 12:19:33;;;;;;;8.05;6.15;;;;;;;;;;5032136;28;20207;-65
2023/06/26 12:22:06;;;;;;;6.90;6.15;;;;;;;;;;5029794;28;20206;-67
2023/06/26 12:24:34;;;;;;;6.95;6.35;;;;;;;;;;5038260;28;20230;-70
2023/06/26 12:27:01;;;;;;;7.10;6.28;;;;;;;;;;5027993;28;20301;-66
2023/06/26 12:29:34;;;;;;;7.13;6.53;;;;;;;;;;5040152;28;20210;-67
2023/06/26 12:32:02;;;;;;;6.78;6.18;;;;;;;;;;5036212;28;20751;-67
2023/06/26 12:34:29;;;;;;;8.68;6.43;;;;;;;;;;5028422;28;20225;-66
2023/06/26 12:37:00;;;;;;;7.18;6.53;;;;;;;;;;5034164;28;20198;-62
2023/06/26 12:39:28;;;;;;;6.97;6.28;;;;;;;;;;5030704;28;20809;-64
2023/06/26 12:41:57;;;;;;;6.50;6.00;;;;;;;;;;5029708;28;20217;-65
2023/06/26 12:44:29;;;;;;;5.80;5.35;;;;;;;;;;5006843;28;20311;-67
2023/06/26 12:47:01;;;;;;;6.45;5.85;;;;;;;;;;5033115;28;20264;-66
2023/06/26 12:49:32;;;;;;;6.15;5.65;;;;;;;;;;5032602;28;20225;-66
2023/06/26 12:52:01;;;;;;;7.07;6.38;;;;;;;;;;5027270;28;20198;-65
2023/06/26 12:54:29;;;;;;;8.05;6.45;;;;;;;;;;5027897;28;20236;-65
2023/06/26 12:56:56;;;;;;;6.38;5.78;;;;;;;;;;5023641;28;20205;-66
2023/06/26 12:59:24;;;;;;;7.35;6.45;;;;;;;;;;5029160;28;20207;-67
2023/06/26 13:01:51;;;;;;;6.55;5.95;;;;;;;;;;5026937;28;20739;-63
2023/06/26 13:04:19;;;;;;;6.40;5.80;;;;;;;;;;5031197;28;20272;-65
2023/06/26 13:06:46;;;;;;;7.55;6.85;;;;;;;;;;5036633;28;20241;-67
2023/06/26 13:09:14;;;;;;;8.40;6.40;;;;;;;;;;5047173;28;20225;-67
2023/06/26 13:11:41;;;;;;;6.80;6.20;;;;;;;;;;5045629;28;20194;-66
2023/06/26 13:14:08;;;;;;;6.97;6.13;;;;;;;;;;5045564;28;20226;-68
2023/06/26 13:16:38;;;;;;;6.45;5.60;;;;;;;;;;5031885;28;20209;-67
2023/06/26 13:19:06;;;;;;;7.07;6.38;;;;;;;;;;5025656;28;20203;-64
2023/06/26 13:21:34;;;;;;;7.72;6.63;;;;;;;;;;5028376;28;20584;-65
2023/06/26 13:24:01;;;;;;;6.45;5.93;;;;;;;;;;5029644;28;20719;-66
2023/06/26 13:26:29;;;;;;;6.90;6.30;;;;;;;;;;5029653;28;20226;-63
2023/06/26 13:28:59;;;;;;;6.88;6.28;;;;;;;;;;5030515;28;20213;-65
2023/06/26 13:31:27;;;;;;;6.72;6.13;;;;;;;;;;5030709;28;20206;-66
2023/06/26 13:33:58;;;;;;;7.30;6.70;;;;;;;;;;5025840;28;20268;-63
2023/06/26 13:36:26;;;;;;;19.73;15.15;;;;;;;;;;5030015;28;20210;-63
2023/06/26 13:38:55;;;;;;;6.63;6.03;;;;;;;;;;5028748;28;20300;-70
2023/06/26 13:41:23;;;;;;;10.07;6.65;;;;;;;;;;5038068;28;20609;-64
2023/06/26 13:43:51;;;;;;;6.75;6.15;;;;;;;;;;5030641;28;20252;-62
2023/06/26 13:46:19;;;;;;;7.38;6.70;;;;;;;;;;5034143;28;20299;-66
2023/06/26 13:48:46;;;;;;;7.97;7.20;;;;;;;;;;5048571;28;20198;-68
2023/06/26 13:51:14;;;;;;;7.43;6.78;;;;;;;;;;5042850;28;20648;-68
2023/06/26 13:53:42;;;;;;;7.47;6.78;;;;;;;;;;5045119;28;20229;-67
2023/06/26 13:56:09;;;;;;;7.25;6.63;;;;;;;;;;5047175;28;20272;-68
2023/06/26 13:58:38;;;;;;;8.15;7.25;;;;;;;;;;5040927;28;20210;-67
2023/06/26 14:01:05;;;;;;;8.32;6.90;;;;;;;;;;5029256;28;20589;-67
2023/06/26 14:03:33;;;;;;;6.90;6.30;;;;;;;;;;5031710;28;20238;-63
2023/06/26 14:06:00;;;;;;;6.90;6.22;;;;;;;;;;5024058;28;21836;-65
2023/06/26 14:08:27;;;;;;;6.95;6.32;;;;;;;;;;5030844;28;20202;-65
2023/06/26 14:10:55;;;;;;;7.72;7.13;;;;;;;;;;5030346;28;20197;-67
2023/06/26 14:13:22;;;;;;;7.00;6.40;;;;;;;;;;5032470;28;20230;-65
2023/06/26 14:15:53;;;;;;;8.05;6.60;;;;;;;;;;5017106;28;20210;-63
2023/06/26 14:18:23;;;;;;;7.53;6.85;;;;;;;;;;5018277;28;20312;-71
2023/06/26 14:20:51;;;;;;;7.30;6.70;;;;;;;;;;5030059;28;20214;-65
2023/06/26 14:23:19;;;;;;;9.93;7.20;;;;;;;;;;5017915;28;20233;-70
2023/06/26 14:25:46;;;;;;;9.68;6.88;;;;;;;;;;5031635;28;20248;-63
2023/06/26 14:28:16;;;;;;;7.47;6.78;;;;;;;;;;5030612;28;20202;-63
2023/06/26 14:30:43;;;;;;;8.05;6.97;;;;;;;;;;5026236;28;20811;-68
2023/06/26 14:33:10;;;;;;;8.95;6.90;;;;;;;;;;5021668;28;20319;-63
2023/06/26 14:35:38;;;;;;;7.63;6.68;;;;;;;;;;5035289;28;20212;-68
2023/06/26 14:38:05;;;;;;;7.40;6.70;;;;;;;;;;5030210;28;20668;-68
2023/06/26 14:40:32;;;;;;;7.32;6.28;;;;;;;;;;5037943;28;20206;-69
2023/06/26 14:43:00;;;;;;;7.45;6.75;;;;;;;;;;5033123;28;20487;-68
2023/06/26 14:45:28;;;;;;;7.40;6.70;;;;;;;;;;5033175;28;20230;-66
2023/06/26 14:47:55;;;;;;;7.72;6.72;;;;;;;;;;5029217;28;20293;-70
2023/06/26 14:50:23;;;;;;;9.13;7.20;;;;;;;;;;5035378;28;20208;-63